Time;durP1;ratioP1;P1;durP2;ratioP2;P2;SDS_P1;SDS_P2;PMS_P1;PMS_P2;Temp;Humidity;BMP_temperature;BMP_pressure;BME280_temperature;BME280_humidity;BME280_pressure;Samples;Min_cycle;Max_cycle;Signal;HPM_P1;HPM_P2
2023/07/09 00:01:58;;;;;;;8.68;7.72;;;21.20;99.90;;;;;;5004920;28;20046;-42
2023/07/09 00:04:24;;;;;;;10.23;8.55;;;21.10;99.90;;;;;;5002132;28;20399;-43
2023/07/09 00:06:52;;;;;;;8.45;7.65;;;21.10;99.90;;;;;;5001866;28;20041;-42
2023/07/09 00:09:20;;;;;;;9.15;8.18;;;21.10;99.90;;;;;;4978182;28;20631;-42
2023/07/09 00:11:46;;;;;;;9.60;8.32;;;21.10;99.90;;;;;;4995111;28;20046;-43
2023/07/09 00:14:14;;;;;;;12.57;8.48;;;21.00;99.90;;;;;;4997579;28;20033;-42
2023/07/09 00:16:41;;;;;;;9.57;8.25;;;21.00;99.90;;;;;;5006044;28;20125;-43
2023/07/09 00:19:23;;;;;;;9.40;8.35;;;21.00;99.90;;;;;;5001369;28;20053;-42
2023/07/09 00:21:52;;;;;;;10.10;8.45;;;21.00;99.90;;;;;;5007006;28;20052;-41
2023/07/09 00:24:19;;;;;;;8.63;7.72;;;21.00;99.90;;;;;;5007591;28;20130;-43
2023/07/09 00:26:47;;;;;;;8.82;7.93;;;20.90;99.90;;;;;;4989769;28;20041;-43
2023/07/09 00:29:14;;;;;;;10.02;8.15;;;20.90;99.90;;;;;;5003157;28;20546;-42
2023/07/09 00:31:40;;;;;;;9.23;7.95;;;20.90;99.90;;;;;;5006909;28;20046;-43
2023/07/09 00:34:11;;;;;;;9.55;8.20;;;20.90;99.90;;;;;;4987088;28;20034;-43
2023/07/09 00:36:37;;;;;;;9.30;8.45;;;20.90;99.90;;;;;;5003926;28;20411;-42
2023/07/09 00:39:07;;;;;;;8.82;8.02;;;20.90;99.90;;;;;;5007622;28;20030;-43
2023/07/09 00:41:37;;;;;;;9.38;8.48;;;20.80;99.90;;;;;;5000748;28;20035;-41
2023/07/09 00:44:31;;;;;;;9.60;8.35;;;20.80;99.90;;;;;;5008473;28;20038;-43
2023/07/09 00:47:02;;;;;;;8.85;7.95;;;20.80;99.90;;;;;;5008481;28;20069;-43
2023/07/09 00:49:46;;;;;;;8.48;7.78;;;20.70;99.90;;;;;;5007583;28;20050;-42
2023/07/09 00:52:27;;;;;;;8.82;7.93;;;20.70;99.90;;;;;;5009642;28;20044;-41
2023/07/09 00:54:54;;;;;;;8.60;7.80;;;20.70;99.90;;;;;;5000539;28;20073;-43
2023/07/09 00:57:26;;;;;;;8.82;7.88;;;20.70;99.90;;;;;;5011426;28;20438;-42
2023/07/09 00:59:56;;;;;;;9.23;8.20;;;20.60;99.90;;;;;;5012120;28;20125;-42
2023/07/09 01:02:23;;;;;;;8.43;7.68;;;20.60;99.90;;;;;;5011480;28;20076;-43
2023/07/09 01:05:00;;;;;;;8.95;8.07;;;20.60;99.90;;;;;;5011559;28;20068;-41
2023/07/09 01:07:28;;;;;;;8.52;7.70;;;20.60;99.90;;;;;;5011845;28;20495;-43
2023/07/09 01:09:53;;;;;;;8.35;7.55;;;20.60;99.90;;;;;;5010657;28;20091;-43
2023/07/09 01:12:20;;;;;;;9.25;8.27;;;20.60;99.90;;;;;;5011943;28;20400;-43
2023/07/09 01:14:52;;;;;;;9.57;8.55;;;20.50;99.90;;;;;;4977954;28;20054;-42
2023/07/09 01:17:18;;;;;;;9.32;8.02;;;20.50;99.90;;;;;;5010994;28;20038;-43
2023/07/09 01:19:49;;;;;;;8.52;7.63;;;20.50;99.90;;;;;;5001894;28;20038;-43
2023/07/09 01:22:20;;;;;;;9.45;8.45;;;20.40;99.90;;;;;;5004427;28;20283;-42
2023/07/09 01:25:05;;;;;;;10.38;8.57;;;20.40;99.90;;;;;;5004601;28;20085;-40
2023/07/09 01:27:37;;;;;;;9.15;8.25;;;20.40;99.90;;;;;;4987061;28;20055;-42
2023/07/09 01:30:10;;;;;;;9.00;8.10;;;20.40;99.90;;;;;;5000144;28;20037;-40
2023/07/09 01:32:37;;;;;;;9.02;8.13;;;20.30;99.90;;;;;;5002883;28;20117;-42
2023/07/09 01:35:06;;;;;;;9.48;8.48;;;20.30;99.90;;;;;;5006398;28;20037;-43
2023/07/09 01:37:35;;;;;;;8.80;7.70;;;20.20;99.90;;;;;;5009192;28;20042;-43
2023/07/09 01:40:01;;;;;;;9.05;8.25;;;20.20;99.90;;;;;;5009666;28;20080;-43
2023/07/09 01:42:28;;;;;;;8.85;7.95;;;20.20;99.90;;;;;;5009739;28;20065;-42
2023/07/09 01:44:55;;;;;;;8.75;7.80;;;20.20;99.90;;;;;;5009382;28;20454;-43
2023/07/09 01:47:22;;;;;;;9.50;8.60;;;20.10;99.90;;;;;;5009580;28;20077;-43
2023/07/09 01:49:47;;;;;;;10.18;8.27;;;20.10;99.90;;;;;;5009872;28;20042;-42
2023/07/09 01:52:16;;;;;;;9.60;8.70;;;20.00;99.90;;;;;;5007015;28;20037;-42
2023/07/09 01:54:49;;;;;;;10.00;8.85;;;20.00;99.90;;;;;;5008199;28;20061;-42
2023/07/09 01:57:33;;;;;;;9.30;8.35;;;20.00;99.90;;;;;;4992121;28;20387;-42
2023/07/09 02:00:10;;;;;;;11.68;8.98;;;20.00;99.90;;;;;;5001265;28;20042;-43
2023/07/09 02:02:38;;;;;;;9.52;8.52;;;20.00;99.90;;;;;;5006550;28;20034;-42
2023/07/09 02:05:05;;;;;;;8.52;7.70;;;19.90;99.90;;;;;;5009609;28;20543;-41
2023/07/09 02:07:31;;;;;;;10.25;8.73;;;19.90;99.90;;;;;;4991181;28;20056;-43
2023/07/09 02:09:58;;;;;;;10.13;7.93;;;19.90;99.90;;;;;;5008922;28;20029;-42
2023/07/09 02:12:24;;;;;;;10.23;8.27;;;19.90;99.90;;;;;;5005841;28;20038;-42
2023/07/09 02:14:50;;;;;;;9.07;8.27;;;19.80;99.90;;;;;;5004708;28;20037;-41
2023/07/09 02:17:16;;;;;;;8.70;7.88;;;19.80;99.90;;;;;;5009712;28;20117;-43
2023/07/09 02:19:45;;;;;;;12.05;8.73;;;19.80;99.90;;;;;;5005297;28;20488;-43
2023/07/09 02:22:11;;;;;;;9.60;8.63;;;19.80;99.90;;;;;;5007971;28;20038;-42
2023/07/09 02:24:37;;;;;;;9.38;7.70;;;19.70;99.90;;;;;;4991653;28;20048;-42
2023/07/09 02:27:05;;;;;;;9.98;8.80;;;19.70;99.90;;;;;;5008839;28;20042;-43
2023/07/09 02:29:34;;;;;;;9.88;8.98;;;19.70;99.90;;;;;;5008694;28;20057;-42
2023/07/09 02:32:01;;;;;;;9.70;8.73;;;19.70;99.90;;;;;;5008509;28;20168;-39
2023/07/09 02:34:30;;;;;;;9.57;8.68;;;19.70;99.90;;;;;;5008581;28;20046;-43
2023/07/09 02:36:58;;;;;;;9.25;8.35;;;19.70;99.90;;;;;;5008603;28;20084;-43
2023/07/09 02:39:24;;;;;;;9.52;8.52;;;19.70;99.90;;;;;;5008696;28;20046;-43
2023/07/09 02:41:50;;;;;;;9.70;8.73;;;19.70;99.90;;;;;;5008063;28;20041;-42
2023/07/09 02:44:17;;;;;;;8.90;8.07;;;19.60;99.90;;;;;;5007752;28;20395;-42
2023/07/09 02:46:44;;;;;;;9.93;8.93;;;19.60;99.90;;;;;;4989321;28;20100;-42
2023/07/09 02:49:14;;;;;;;9.38;8.57;;;19.60;99.90;;;;;;5006801;28;20030;-43
2023/07/09 02:51:40;;;;;;;10.20;9.30;;;19.60;99.90;;;;;;5005514;28;20044;-43
2023/07/09 02:54:06;;;;;;;9.77;8.88;;;19.50;99.90;;;;;;5006851;28;20165;-43
2023/07/09 02:56:35;;;;;;;10.55;8.85;;;19.50;99.90;;;;;;5007043;28;20034;-42
2023/07/09 02:59:01;;;;;;;9.32;8.43;;;19.50;99.90;;;;;;4989958;28;20034;-39
2023/07/09 03:01:28;;;;;;;9.80;8.80;;;19.40;99.90;;;;;;5003931;28;20112;-43
2023/07/09 03:03:55;;;;;;;10.13;8.85;;;19.30;99.90;;;;;;5001265;28;20042;-43
2023/07/09 03:06:21;;;;;;;9.70;8.80;;;19.30;99.90;;;;;;5006252;28;20511;-43
2023/07/09 03:08:47;;;;;;;12.68;9.10;;;19.30;99.90;;;;;;5006636;28;20177;-41
2023/07/09 03:11:15;;;;;;;10.80;8.90;;;19.30;99.90;;;;;;5006968;28;20133;-42
2023/07/09 03:13:41;;;;;;;9.57;8.68;;;19.20;99.90;;;;;;4985434;28;20495;-43
2023/07/09 03:16:06;;;;;;;9.63;8.23;;;19.20;99.90;;;;;;5002092;28;20042;-43
2023/07/09 03:18:32;;;;;;;10.55;9.13;;;19.20;99.90;;;;;;5002652;28;20032;-43
2023/07/09 03:21:01;;;;;;;10.60;9.32;;;19.20;99.90;;;;;;4997259;28;20535;-41
2023/07/09 03:23:27;;;;;;;10.13;9.00;;;19.20;99.90;;;;;;4999743;28;20088;-42
2023/07/09 03:25:54;;;;;;;10.55;8.75;;;19.20;99.90;;;;;;5002239;28;20371;-42
2023/07/09 03:28:20;;;;;;;9.55;8.48;;;19.20;99.90;;;;;;5002361;28;20558;-42
2023/07/09 03:30:47;;;;;;;12.20;10.35;;;19.20;99.90;;;;;;5002800;28;20026;-41
2023/07/09 03:33:15;;;;;;;10.07;9.15;;;19.20;99.90;;;;;;5002778;28;20121;-42
2023/07/09 03:35:41;;;;;;;10.25;9.25;;;19.10;99.90;;;;;;5003869;28;20057;-42
2023/07/09 03:38:08;;;;;;;10.95;9.80;;;19.10;99.90;;;;;;4987077;28;21511;-42
2023/07/09 03:40:34;;;;;;;10.35;9.35;;;19.20;99.90;;;;;;4995837;28;20038;-43
2023/07/09 03:42:59;;;;;;;9.95;8.88;;;19.20;99.90;;;;;;5005554;28;20100;-41
2023/07/09 03:45:26;;;;;;;9.73;8.82;;;19.30;99.90;;;;;;5003911;28;20116;-42
2023/07/09 03:47:52;;;;;;;10.88;9.30;;;19.30;99.90;;;;;;5006372;28;20893;-43
2023/07/09 03:50:17;;;;;;;9.40;8.50;;;19.30;99.90;;;;;;5002578;28;20037;-43
2023/07/09 03:52:43;;;;;;;11.90;9.90;;;19.30;99.90;;;;;;5006305;28;20030;-43
2023/07/09 03:55:09;;;;;;;14.55;9.50;;;19.20;99.90;;;;;;5007123;28;20042;-42
2023/07/09 03:57:35;;;;;;;10.50;9.40;;;19.20;99.90;;;;;;5006877;28;20067;-43
2023/07/09 04:00:03;;;;;;;12.60;9.95;;;19.20;99.90;;;;;;5006118;28;20034;-42
2023/07/09 04:02:30;;;;;;;9.98;9.00;;;19.20;99.90;;;;;;5006794;28;20034;-42
2023/07/09 04:04:55;;;;;;;11.60;10.10;;;19.20;99.90;;;;;;5006886;28;20096;-42
2023/07/09 04:07:21;;;;;;;10.27;9.27;;;19.20;99.90;;;;;;5006755;28;20045;-43
2023/07/09 04:09:46;;;;;;;10.82;9.43;;;19.30;99.90;;;;;;4988696;28;20042;-41
2023/07/09 04:12:12;;;;;;;10.77;9.65;;;19.40;99.90;;;;;;5006337;28;20033;-43
2023/07/09 04:14:38;;;;;;;10.20;9.20;;;19.40;99.90;;;;;;5003958;28;20046;-42
2023/07/09 04:17:04;;;;;;;9.75;8.85;;;19.50;99.90;;;;;;4999259;28;20507;-42
2023/07/09 04:19:29;;;;;;;9.82;8.85;;;19.50;99.90;;;;;;5006177;28;20449;-43
2023/07/09 04:21:55;;;;;;;10.93;9.38;;;19.60;99.90;;;;;;5005797;28;20108;-43
2023/07/09 04:24:21;;;;;;;10.60;9.60;;;19.60;99.90;;;;;;5010834;28;20450;-41
2023/07/09 04:26:47;;;;;;;10.55;9.55;;;19.70;99.90;;;;;;5005431;28;20439;-40
2023/07/09 04:29:13;;;;;;;11.75;10.55;;;19.80;99.90;;;;;;5010689;28;20044;-43
2023/07/09 04:31:40;;;;;;;10.88;9.77;;;19.90;99.90;;;;;;5008096;28;20430;-43
2023/07/09 04:34:06;;;;;;;10.60;9.60;;;20.00;99.90;;;;;;4987528;28;20414;-43
2023/07/09 04:36:32;;;;;;;11.02;9.88;;;20.00;99.90;;;;;;5008664;28;20129;-43
2023/07/09 04:38:58;;;;;;;13.38;9.73;;;20.00;99.90;;;;;;5008307;28;20073;-43
2023/07/09 04:41:24;;;;;;;10.95;9.80;;;20.00;99.90;;;;;;5009296;28;20076;-43
2023/07/09 04:43:50;;;;;;;10.90;9.90;;;20.10;99.90;;;;;;5011013;28;20092;-43
2023/07/09 04:46:16;;;;;;;11.73;10.05;;;20.20;99.90;;;;;;5008000;28;20476;-41
2023/07/09 04:48:41;;;;;;;11.77;9.70;;;20.20;99.90;;;;;;4987472;28;20085;-40
2023/07/09 04:51:07;;;;;;;19.35;10.10;;;20.30;99.90;;;;;;5004700;28;20026;-43
2023/07/09 04:53:33;;;;;;;12.20;9.18;;;20.40;99.90;;;;;;5006402;28;20048;-43
2023/07/09 04:55:59;;;;;;;11.90;10.13;;;20.50;99.90;;;;;;5006081;28;20061;-41
2023/07/09 04:58:24;;;;;;;11.93;10.05;;;20.50;99.90;;;;;;5005590;28;20070;-42
2023/07/09 05:00:50;;;;;;;11.23;9.63;;;20.60;99.90;;;;;;5004201;28;20034;-41
2023/07/09 05:03:18;;;;;;;10.68;9.63;;;20.70;99.90;;;;;;5010834;28;20030;-42
2023/07/09 05:05:44;;;;;;;10.25;9.15;;;20.80;99.90;;;;;;5009567;28;20049;-43
2023/07/09 05:08:12;;;;;;;11.20;9.57;;;20.90;99.90;;;;;;5008927;28;20407;-42
2023/07/09 05:10:42;;;;;;;10.65;9.43;;;21.00;99.90;;;;;;5010081;28;20041;-43
2023/07/09 05:13:08;;;;;;;12.73;10.20;;;21.10;99.90;;;;;;5001110;28;20495;-43
2023/07/09 05:15:34;;;;;;;10.98;9.88;;;21.30;99.90;;;;;;4995529;28;20049;-40
2023/07/09 05:17:59;;;;;;;11.70;10.55;;;21.40;99.90;;;;;;4993022;28;20025;-42
2023/07/09 05:20:25;;;;;;;11.68;9.88;;;21.50;99.90;;;;;;5005498;28;20042;-42
2023/07/09 05:22:51;;;;;;;13.60;10.40;;;21.60;99.90;;;;;;4988549;28;20038;-43
2023/07/09 05:25:18;;;;;;;11.90;10.65;;;21.70;99.90;;;;;;5007082;28;20360;-42
2023/07/09 05:27:43;;;;;;;13.55;10.77;;;21.80;99.90;;;;;;5008373;28;20042;-42
2023/07/09 05:30:09;;;;;;;12.57;10.73;;;21.90;99.90;;;;;;4991505;28;20041;-43
2023/07/09 05:32:37;;;;;;;12.23;10.68;;;22.00;99.90;;;;;;5008775;28;20045;-42
2023/07/09 05:35:03;;;;;;;11.93;10.73;;;22.10;99.90;;;;;;5009158;28;20033;-43
2023/07/09 05:37:29;;;;;;;11.70;10.60;;;22.20;99.90;;;;;;5008908;28;20132;-42
2023/07/09 05:39:55;;;;;;;10.98;9.98;;;22.20;99.90;;;;;;4999036;28;20033;-43
2023/07/09 05:42:21;;;;;;;11.77;10.57;;;22.30;99.90;;;;;;5004354;28;20030;-43
2023/07/09 05:44:47;;;;;;;13.70;10.18;;;22.40;99.90;;;;;;5001374;28;20049;-43
2023/07/09 05:47:13;;;;;;;11.80;10.60;;;22.40;99.90;;;;;;5007367;28;20109;-43
2023/07/09 05:49:39;;;;;;;10.07;9.18;;;22.40;99.90;;;;;;5009004;28;20132;-43
2023/07/09 05:52:05;;;;;;;11.70;10.55;;;22.50;99.90;;;;;;5008525;28;20057;-43
2023/07/09 05:54:31;;;;;;;11.68;10.57;;;22.50;99.90;;;;;;5007526;28;20045;-43
2023/07/09 05:56:57;;;;;;;12.02;10.85;;;22.50;99.90;;;;;;5008708;28;20029;-43
2023/07/09 05:59:22;;;;;;;12.73;11.10;;;22.60;99.90;;;;;;5008774;28;20065;-43
2023/07/09 06:01:48;;;;;;;12.60;11.27;;;22.60;99.90;;;;;;5004888;28;20042;-43
2023/07/09 06:04:14;;;;;;;10.98;9.90;;;22.70;99.90;;;;;;5003550;28;20095;-42
2023/07/09 06:06:41;;;;;;;11.05;10.07;;;22.80;99.90;;;;;;5007386;28;20041;-42
2023/07/09 06:09:08;;;;;;;11.57;10.57;;;22.80;99.90;;;;;;5006073;28;20144;-43
2023/07/09 06:11:34;;;;;;;12.43;9.95;;;22.90;99.90;;;;;;5007246;28;20045;-43
2023/07/09 06:14:00;;;;;;;12.40;10.63;;;23.00;99.90;;;;;;5007895;28;20162;-43
2023/07/09 06:16:27;;;;;;;11.15;10.05;;;23.10;99.90;;;;;;5008168;28;20042;-42
2023/07/09 06:18:52;;;;;;;11.77;10.57;;;23.10;99.90;;;;;;5004304;28;20037;-43
2023/07/09 06:21:18;;;;;;;12.75;11.45;;;23.20;99.90;;;;;;5003271;28;20030;-43
2023/07/09 06:23:48;;;;;;;12.32;11.13;;;23.30;99.90;;;;;;5007667;28;20511;-42
2023/07/09 06:26:13;;;;;;;11.85;10.75;;;23.40;99.90;;;;;;5008480;28;20068;-43
2023/07/09 06:28:39;;;;;;;13.23;11.27;;;23.50;99.90;;;;;;5009118;28;20462;-43
2023/07/09 06:31:05;;;;;;;12.48;11.20;;;23.50;99.90;;;;;;5008096;28;20030;-42
2023/07/09 06:33:33;;;;;;;11.68;10.50;;;23.60;99.90;;;;;;5004159;28;20635;-42
2023/07/09 06:36:01;;;;;;;12.35;11.15;;;23.80;99.90;;;;;;5001629;28;20038;-43
2023/07/09 06:38:28;;;;;;;13.05;11.70;;;23.90;99.90;;;;;;5001863;28;20416;-43
2023/07/09 06:40:54;;;;;;;11.93;10.27;;;24.00;99.90;;;;;;5005212;28;20044;-43
2023/07/09 06:43:20;;;;;;;12.88;11.57;;;24.10;99.90;;;;;;5001012;28;20042;-43
2023/07/09 06:45:55;;;;;;;14.73;11.32;;;24.30;99.90;;;;;;4993477;28;20048;-43
2023/07/09 06:48:21;;;;;;;11.43;10.30;;;24.40;99.90;;;;;;4999364;28;20325;-43
2023/07/09 06:50:47;;;;;;;14.10;10.75;;;24.50;99.90;;;;;;4996868;28;20321;-43
2023/07/09 06:53:13;;;;;;;12.05;10.65;;;24.70;99.90;;;;;;4978105;28;20042;-44
2023/07/09 06:55:39;;;;;;;12.20;10.98;;;24.80;99.90;;;;;;4998949;28;20049;-43
2023/07/09 06:58:06;;;;;;;13.32;11.73;;;24.90;99.90;;;;;;4979212;28;20064;-43
2023/07/09 07:00:34;;;;;;;11.35;10.25;;;25.00;99.90;;;;;;4994503;28;20048;-43
2023/07/09 07:03:00;;;;;;;12.57;10.82;;;25.10;99.90;;;;;;4982136;28;20042;-43
2023/07/09 07:05:26;;;;;;;13.40;11.13;;;25.30;99.90;;;;;;4996529;28;20454;-43
2023/07/09 07:07:55;;;;;;;15.90;11.50;;;25.40;99.90;;;;;;4983990;28;20046;-43
2023/07/09 07:10:20;;;;;;;12.00;10.75;;;25.50;99.90;;;;;;5001547;28;20050;-43
2023/07/09 07:12:49;;;;;;;11.23;10.23;;;25.70;99.90;;;;;;4998793;28;20051;-43
2023/07/09 07:15:18;;;;;;;12.70;10.57;;;25.70;99.90;;;;;;4994135;28;20562;-43
2023/07/09 07:17:43;;;;;;;12.40;10.90;;;25.90;99.90;;;;;;4995790;28;20041;-44
2023/07/09 07:20:10;;;;;;;11.25;9.82;;;26.10;99.90;;;;;;5001013;28;20037;-44
2023/07/09 07:22:37;;;;;;;11.48;9.82;;;26.30;99.90;;;;;;4991717;28;20038;-41
2023/07/09 07:25:04;;;;;;;10.90;9.80;;;26.40;99.90;;;;;;4996314;28;20056;-44
2023/07/09 07:27:30;;;;;;;12.48;9.82;;;26.50;99.90;;;;;;4997803;28;20034;-42
2023/07/09 07:29:55;;;;;;;12.30;9.63;;;26.70;99.90;;;;;;4992101;28;20033;-44
2023/07/09 07:32:21;;;;;;;10.85;9.30;;;26.80;99.90;;;;;;4999623;28;20038;-44
2023/07/09 07:34:48;;;;;;;12.90;9.63;;;26.90;99.90;;;;;;4996693;28;20033;-44
2023/07/09 07:37:14;;;;;;;10.60;8.70;;;27.00;99.90;;;;;;4992162;28;20121;-44
2023/07/09 07:39:40;;;;;;;14.57;9.90;;;27.20;99.90;;;;;;5000064;28;20042;-44
2023/07/09 07:42:07;;;;;;;11.15;9.90;;;27.40;99.90;;;;;;4988572;28;20109;-44
2023/07/09 07:44:32;;;;;;;10.70;9.70;;;27.50;99.90;;;;;;4997357;28;20034;-43
2023/07/09 07:46:58;;;;;;;11.43;10.27;;;27.70;99.90;;;;;;4995736;28;20543;-42
2023/07/09 07:49:37;;;;;;;11.75;9.75;;;27.70;99.90;;;;;;4979168;28;20577;-44
2023/07/09 07:52:03;;;;;;;10.27;9.20;;;27.90;99.90;;;;;;4981186;28;20089;-43
2023/07/09 07:54:31;;;;;;;11.38;9.30;;;28.00;99.90;;;;;;5004383;28;20046;-43
2023/07/09 07:56:57;;;;;;;12.25;9.60;;;28.20;99.90;;;;;;5007011;28;20038;-44
2023/07/09 07:59:23;;;;;;;12.07;9.85;;;28.30;99.90;;;;;;5005255;28;20038;-43
2023/07/09 08:01:49;;;;;;;10.32;9.30;;;28.50;99.90;;;;;;4999181;28;20539;-44
2023/07/09 08:04:15;;;;;;;11.07;9.18;;;28.60;99.90;;;;;;5011734;28;20053;-44
2023/07/09 08:06:41;;;;;;;9.82;8.93;;;28.70;99.90;;;;;;5006906;28;20107;-44
2023/07/09 08:09:06;;;;;;;10.43;8.60;;;28.90;99.90;;;;;;5004575;28;20412;-44
2023/07/09 08:11:32;;;;;;;15.95;9.05;;;29.00;99.90;;;;;;5007574;28;20490;-44
2023/07/09 08:13:58;;;;;;;9.80;8.38;;;29.00;99.40;;;;;;5009611;28;20053;-44
2023/07/09 08:16:24;;;;;;;10.80;9.55;;;29.10;99.50;;;;;;5009147;28;20040;-44
2023/07/09 08:18:51;;;;;;;11.50;8.82;;;29.10;98.80;;;;;;4990909;28;20123;-43
2023/07/09 08:21:18;;;;;;;9.68;8.77;;;29.20;99.40;;;;;;5006410;28;20061;-44
2023/07/09 08:23:44;;;;;;;10.60;9.45;;;29.30;99.10;;;;;;5008553;28;20038;-44
2023/07/09 08:26:10;;;;;;;9.75;8.75;;;29.50;98.40;;;;;;5007232;28;20056;-44
2023/07/09 08:28:37;;;;;;;9.57;8.30;;;29.70;97.70;;;;;;5007966;28;20495;-44
2023/07/09 08:31:03;;;;;;;10.70;9.18;;;29.80;97.20;;;;;;5008995;28;20117;-43
2023/07/09 08:33:30;;;;;;;11.57;8.65;;;29.90;96.70;;;;;;5000722;28;20042;-41
2023/07/09 08:35:56;;;;;;;9.73;8.73;;;30.00;96.50;;;;;;5012759;28;20069;-40
2023/07/09 08:38:23;;;;;;;9.43;8.35;;;30.00;96.80;;;;;;5011213;28;20108;-41
2023/07/09 08:41:01;;;;;;;9.45;8.35;;;30.10;97.00;;;;;;5011789;28;20099;-41
2023/07/09 08:43:45;;;;;;;9.90;8.20;;;30.10;97.20;;;;;;5009190;28;20042;-37
2023/07/09 08:47:00;;;;;;;13.88;8.63;;;30.20;96.70;;;;;;5009916;28;20042;-38
2023/07/09 08:49:40;;;;;;;9.13;8.23;;;30.40;95.20;;;;;;4951241;28;20097;-44
2023/07/09 08:52:36;;;;;;;12.15;8.02;;;30.70;95.60;;;;;;4950199;28;20043;-40
2023/07/09 08:55:08;;;;;;;10.15;8.15;;;30.80;95.30;;;;;;4993305;28;20057;-39
2023/07/09 08:57:40;;;;;;;9.73;8.73;;;31.00;93.10;;;;;;5007178;28;20064;-45
2023/07/09 09:00:39;;;;;;;8.63;7.72;;;31.10;92.20;;;;;;5004848;28;20038;-43
2023/07/09 09:03:13;;;;;;;8.73;7.75;;;31.30;91.50;;;;;;4991207;28;20046;-40
2023/07/09 09:05:43;;;;;;;8.82;7.43;;;31.40;90.70;;;;;;5009539;28;20046;-39
2023/07/09 09:08:38;;;;;;;9.02;7.35;;;31.40;91.30;;;;;;5009283;28;20369;-41
2023/07/09 09:11:21;;;;;;;8.25;7.15;;;31.70;89.40;;;;;;4979889;28;20081;-41
2023/07/09 09:13:51;;;;;;;9.30;7.57;;;31.90;87.90;;;;;;5007725;28;20034;-41
2023/07/09 09:16:27;;;;;;;10.02;7.53;;;32.00;88.00;;;;;;5010565;28;20063;-40
2023/07/09 09:18:58;;;;;;;9.02;8.05;;;32.20;87.00;;;;;;5004588;28;20034;-39
2023/07/09 09:21:36;;;;;;;9.07;7.88;;;32.30;85.80;;;;;;5005338;28;20038;-41
2023/07/09 09:24:26;;;;;;;10.52;7.97;;;32.50;87.70;;;;;;5006058;28;20500;-38
2023/07/09 09:26:56;;;;;;;8.60;6.90;;;32.80;89.10;;;;;;5010820;28;20034;-38
2023/07/09 09:29:24;;;;;;;10.25;7.55;;;32.90;85.10;;;;;;5010506;28;20496;-38
2023/07/09 09:31:55;;;;;;;9.98;7.00;;;33.00;81.60;;;;;;5009747;28;20025;-37
2023/07/09 09:34:29;;;;;;;8.98;7.22;;;33.00;79.80;;;;;;5010140;28;20125;-40
2023/07/09 09:36:58;;;;;;;8.50;6.93;;;33.00;79.10;;;;;;5006267;28;20340;-40
2023/07/09 09:39:25;;;;;;;8.32;7.22;;;33.10;80.20;;;;;;5008951;28;20122;-39
2023/07/09 09:41:57;;;;;;;8.82;7.10;;;33.20;79.70;;;;;;4991966;28;20041;-38
2023/07/09 09:44:30;;;;;;;7.27;6.50;;;33.30;78.50;;;;;;5006736;28;20046;-38
2023/07/09 09:46:58;;;;;;;9.65;7.68;;;33.20;76.60;;;;;;5006462;28;20296;-41
2023/07/09 09:49:24;;;;;;;7.93;6.53;;;33.30;77.00;;;;;;5009375;28;20052;-41
2023/07/09 09:51:50;;;;;;;8.82;6.95;;;33.50;75.10;;;;;;5008622;28;20444;-42
2023/07/09 09:54:20;;;;;;;6.97;5.65;;;33.70;74.30;;;;;;4981732;28;20428;-40
2023/07/09 09:56:52;;;;;;;8.85;7.10;;;34.00;76.20;;;;;;5007172;28;20121;-41
2023/07/09 09:59:21;;;;;;;6.90;6.30;;;34.20;74.10;;;;;;5000999;28;20033;-43
2023/07/09 10:01:56;;;;;;;6.72;6.10;;;34.40;72.10;;;;;;5002814;28;20080;-41
2023/07/09 10:04:21;;;;;;;7.38;5.47;;;34.40;72.90;;;;;;5007745;28;20612;-38
2023/07/09 10:06:53;;;;;;;6.97;5.97;;;34.70;72.70;;;;;;5006561;28;20101;-39
2023/07/09 10:09:41;;;;;;;7.15;5.97;;;34.90;72.40;;;;;;5002709;28;20037;-37
2023/07/09 10:12:39;;;;;;;7.60;5.65;;;35.00;69.50;;;;;;4990785;28;20443;-39
2023/07/09 10:15:16;;;;;;;9.25;6.28;;;35.10;69.30;;;;;;4984875;28;20038;-40
2023/07/09 10:18:00;;;;;;;6.28;5.57;;;35.20;70.30;;;;;;4999926;28;20483;-44
2023/07/09 10:20:31;;;;;;;6.70;5.82;;;35.40;71.10;;;;;;5005621;28;20034;-40
2023/07/09 10:23:19;;;;;;;8.63;6.05;;;35.50;68.30;;;;;;5002695;28;20069;-39
2023/07/09 10:25:48;;;;;;;6.85;6.15;;;35.60;64.10;;;;;;5001878;28;20042;-41
2023/07/09 10:28:16;;;;;;;7.43;6.10;;;35.40;65.10;;;;;;5008277;28;20439;-38
2023/07/09 10:30:42;;;;;;;6.85;6.18;;;35.40;65.20;;;;;;5010999;28;20507;-38
2023/07/09 10:33:09;;;;;;;7.40;5.80;;;35.50;65.20;;;;;;4991055;28;20038;-41
2023/07/09 10:36:02;;;;;;;8.00;5.85;;;35.70;64.60;;;;;;5009329;28;20053;-41
2023/07/09 10:39:07;;;;;;;6.93;5.78;;;35.80;62.90;;;;;;5006141;28;20132;-41
2023/07/09 10:41:38;;;;;;;7.80;6.05;;;36.20;63.30;;;;;;5008972;28;20034;-37
2023/07/09 10:44:24;;;;;;;10.60;6.10;;;36.30;62.90;;;;;;5011276;28;20101;-39
2023/07/09 10:46:58;;;;;;;7.22;6.30;;;36.40;61.70;;;;;;4993788;28;20049;-40
2023/07/09 10:49:31;;;;;;;7.10;6.15;;;36.60;61.10;;;;;;4991940;28;20085;-41
2023/07/09 10:52:22;;;;;;;8.38;5.88;;;36.20;61.30;;;;;;4995366;28;20117;-40
2023/07/09 10:55:09;;;;;;;8.32;5.93;;;36.50;61.30;;;;;;5003378;28;20129;-41
2023/07/09 10:57:47;;;;;;;5.88;5.20;;;36.70;60.60;;;;;;4978451;28;20081;-41
2023/07/09 11:00:18;;;;;;;6.28;5.65;;;36.70;60.50;;;;;;5005977;28;20045;-42
2023/07/09 11:02:47;;;;;;;7.85;6.68;;;36.80;58.80;;;;;;4994024;28;20042;-41
2023/07/09 11:05:13;;;;;;;6.60;6.00;;;36.80;58.80;;;;;;5014546;28;20466;-41
2023/07/09 11:07:47;;;;;;;7.35;5.50;;;36.80;58.90;;;;;;5006848;28;20121;-41
2023/07/09 11:10:26;;;;;;;7.57;6.05;;;37.00;58.80;;;;;;5011867;28;20056;-41
2023/07/09 11:13:25;;;;;;;7.50;6.10;;;37.10;59.90;;;;;;4994812;28;20146;-40
2023/07/09 11:15:54;;;;;;;6.90;6.20;;;37.00;58.40;;;;;;5010114;28;20042;-42
2023/07/09 11:18:31;;;;;;;6.47;5.75;;;37.00;59.00;;;;;;5008642;28;20045;-36
2023/07/09 11:21:17;;;;;;;7.30;5.68;;;36.80;55.80;;;;;;5008323;28;20089;-36
2023/07/09 11:23:56;;;;;;;6.88;5.65;;;36.80;56.50;;;;;;5010784;28;20112;-37
2023/07/09 11:26:26;;;;;;;6.20;5.60;;;36.60;59.20;;;;;;5004978;28;20046;-42
2023/07/09 11:29:13;;;;;;;8.25;5.85;;;36.60;58.10;;;;;;5007396;28;20044;-39
2023/07/09 11:31:41;;;;;;;8.38;5.90;;;36.70;57.60;;;;;;5006481;28;20046;-39
2023/07/09 11:34:13;;;;;;;11.27;6.40;;;36.70;58.20;;;;;;5003555;28;20049;-40
2023/07/09 11:36:54;;;;;;;8.40;5.95;;;36.80;57.00;;;;;;5003710;28;20029;-40
2023/07/09 11:39:23;;;;;;;6.22;5.65;;;36.80;58.60;;;;;;5005443;28;20037;-39
2023/07/09 11:41:49;;;;;;;6.88;5.93;;;36.70;57.30;;;;;;5008462;28;20045;-40
2023/07/09 11:44:19;;;;;;;5.95;5.38;;;36.80;59.80;;;;;;5011223;28;20030;-41
2023/07/09 11:47:17;;;;;;;6.60;5.20;;;37.10;59.40;;;;;;5009097;28;20070;-40
2023/07/09 11:49:59;;;;;;;7.28;5.45;;;37.40;57.60;;;;;;4996718;28;20057;-42
2023/07/09 11:52:34;;;;;;;6.30;5.53;;;37.40;55.40;;;;;;5009387;28;20034;-41
2023/07/09 11:55:21;;;;;;;6.05;5.53;;;37.40;58.20;;;;;;5009968;28;20042;-40
2023/07/09 11:57:49;;;;;;;6.05;5.03;;;37.60;54.60;;;;;;5005307;28;20037;-37
2023/07/09 12:00:15;;;;;;;6.20;5.43;;;37.40;55.50;;;;;;5010392;28;20535;-44
2023/07/09 12:02:41;;;;;;;7.10;5.05;;;37.60;55.40;;;;;;4991049;28;20372;-41
2023/07/09 12:05:08;;;;;;;7.75;5.50;;;37.80;56.70;;;;;;5011525;28;20080;-39
2023/07/09 12:07:35;;;;;;;5.75;5.10;;;38.10;57.10;;;;;;5001367;28;20551;-40
2023/07/09 12:10:09;;;;;;;6.75;5.45;;;38.30;57.30;;;;;;4994508;28;20077;-43
2023/07/09 12:12:35;;;;;;;8.10;5.18;;;38.20;54.30;;;;;;4988309;28;20123;-41
2023/07/09 12:15:15;;;;;;;5.00;4.60;;;38.40;54.10;;;;;;4990433;28;20130;-41
2023/07/09 12:17:41;;;;;;;5.78;4.82;;;38.50;51.60;;;;;;5011106;28;20103;-42
2023/07/09 12:20:07;;;;;;;4.95;4.50;;;38.30;52.40;;;;;;5012100;28;20494;-43
2023/07/09 12:22:33;;;;;;;5.50;4.65;;;38.40;51.80;;;;;;5001869;28;20034;-37
2023/07/09 12:25:00;;;;;;;6.03;5.40;;;38.20;52.70;;;;;;4977343;28;20629;-40
2023/07/09 12:27:28;;;;;;;6.13;4.93;;;38.20;52.20;;;;;;4977997;28;20648;-39
2023/07/09 12:29:56;;;;;;;5.45;4.70;;;38.20;51.90;;;;;;5008054;28;20042;-43
2023/07/09 12:32:26;;;;;;;5.15;4.65;;;38.40;51.40;;;;;;4993448;28;20042;-43
2023/07/09 12:34:54;;;;;;;6.07;5.20;;;38.50;51.40;;;;;;4960619;28;20054;-39
2023/07/09 12:37:22;;;;;;;5.20;4.70;;;38.50;52.10;;;;;;5015974;28;20041;-43
2023/07/09 12:39:51;;;;;;;5.90;4.82;;;38.90;52.00;;;;;;4981397;28;20423;-43
2023/07/09 12:42:37;;;;;;;5.55;4.53;;;39.20;50.80;;;;;;5006683;28;20034;-42
2023/07/09 12:45:04;;;;;;;4.95;4.50;;;39.20;52.00;;;;;;4989110;28;20120;-40
2023/07/09 12:47:30;;;;;;;5.10;4.03;;;39.00;52.40;;;;;;5005521;28;20456;-41
2023/07/09 12:50:29;;;;;;;4.40;3.95;;;39.00;51.00;;;;;;5001999;28;20105;-44
2023/07/09 12:52:57;;;;;;;6.07;4.38;;;39.10;51.70;;;;;;5003266;28;20045;-40
2023/07/09 12:55:25;;;;;;;5.10;4.20;;;39.40;50.80;;;;;;5013179;28;20575;-44